Time;durP1;ratioP1;P1;durP2;ratioP2;P2;SDS_P1;SDS_P2;PMS_P1;PMS_P2;Temp;Humidity;BMP_temperature;BMP_pressure;BME280_temperature;BME280_humidity;BME280_pressure;Samples;Min_cycle;Max_cycle;Signal;HPM_P1;HPM_P2
2023/06/25 00:02:26;;;;;;;8.55;5.80;;;21.40;67.10;;;20.92;54.21;101005.06;5008847;28;20514;-80
2023/06/25 00:04:55;;;;;;;10.23;5.80;;;21.30;67.20;;;20.90;54.50;101008.03;5009634;28;20157;-79
2023/06/25 00:07:22;;;;;;;9.40;5.50;;;21.30;67.20;;;20.88;54.63;101010.19;5009509;28;20070;-79
2023/06/25 00:09:53;;;;;;;9.82;6.10;;;21.30;67.40;;;20.86;54.58;100998.81;5010308;28;20049;-79
2023/06/25 00:12:21;;;;;;;10.35;5.63;;;21.30;67.70;;;20.85;54.96;101004.50;5009822;28;20049;-79
2023/06/25 00:14:48;;;;;;;11.63;5.40;;;21.30;67.90;;;20.82;54.62;101000.41;5004585;28;20121;-80
2023/06/25 00:17:17;;;;;;;9.30;5.32;;;21.20;67.90;;;20.80;54.53;100997.16;5010717;28;20045;-80
2023/06/25 00:19:44;;;;;;;8.80;5.35;;;21.20;67.80;;;20.78;54.67;100997.41;5010393;28;20049;-79
2023/06/25 00:22:13;;;;;;;9.02;5.93;;;21.20;68.00;;;20.78;54.78;100999.31;5005152;28;20052;-80
2023/06/25 00:24:41;;;;;;;9.23;5.68;;;21.20;68.00;;;20.74;54.99;100990.91;5009039;28;20121;-79
2023/06/25 00:27:08;;;;;;;9.40;5.45;;;21.10;68.10;;;20.72;55.05;100984.13;5006081;28;20041;-80
2023/06/25 00:29:35;;;;;;;9.43;5.53;;;21.10;68.30;;;20.70;54.91;100984.38;5010210;28;20625;-80
2023/06/25 00:32:03;;;;;;;10.30;5.53;;;21.10;68.30;;;20.68;55.32;100988.44;5008095;28;20422;-79
2023/06/25 00:34:30;;;;;;;12.38;5.70;;;21.10;68.50;;;20.66;55.11;100982.47;5008619;28;20046;-79
2023/06/25 00:36:59;;;;;;;8.60;5.63;;;21.10;68.70;;;20.65;55.34;100981.66;5010217;28;20042;-80
2023/06/25 00:39:27;;;;;;;9.07;5.40;;;21.10;68.70;;;20.63;55.30;100974.88;4997484;28;20054;-79
2023/06/25 00:41:58;;;;;;;8.52;5.20;;;21.00;68.70;;;20.61;55.61;100977.84;5007658;28;20577;-80
2023/06/25 00:44:28;;;;;;;9.95;5.38;;;21.00;68.90;;;20.58;55.72;100976.47;5008292;28;20061;-79
2023/06/25 00:46:59;;;;;;;8.50;5.18;;;21.00;69.00;;;20.57;55.66;100974.03;5007812;28;20046;-80
2023/06/25 00:49:26;;;;;;;;;;;20.90;69.10;;;20.55;55.65;100971.59;5008071;28;20528;-79
2023/06/25 00:51:53;;;;;;;9.43;5.85;;;21.00;69.30;;;20.53;55.58;100959.38;5009673;28;20029;-80
2023/06/25 00:54:21;;;;;;;12.00;5.93;;;21.00;69.30;;;20.50;55.96;100960.75;5009902;28;20050;-79
2023/06/25 00:56:49;;;;;;;13.98;6.28;;;20.90;69.60;;;20.50;56.12;100959.94;5008217;28;20141;-80
2023/06/25 00:59:17;;;;;;;8.20;5.45;;;20.90;69.70;;;20.48;56.12;100954.75;5008457;28;20149;-80
2023/06/25 01:01:52;;;;;;;9.70;5.68;;;20.90;69.70;;;20.47;56.18;100953.13;5005986;28;20508;-80
2023/06/25 01:04:26;;;;;;;10.40;5.90;;;20.90;69.80;;;20.46;56.29;100954.19;5008824;28;20546;-79
2023/06/25 01:07:00;;;;;;;8.00;5.50;;;20.90;69.90;;;20.45;56.45;100957.16;5008261;28;20135;-80
2023/06/25 01:09:28;;;;;;;7.90;5.50;;;20.90;69.90;;;20.44;56.46;100958.22;5024367;28;20045;-80
2023/06/25 01:12:05;;;;;;;10.80;5.80;;;20.90;70.10;;;20.41;56.54;100956.88;5008091;28;20041;-79
2023/06/25 01:14:33;;;;;;;10.38;5.43;;;20.90;70.20;;;20.40;56.67;100954.41;5007565;28;20490;-80
2023/06/25 01:17:01;;;;;;;8.32;5.30;;;20.80;70.20;;;20.38;56.81;100951.16;5009530;28;20055;-80
2023/06/25 01:19:30;;;;;;;9.23;5.88;;;20.80;70.30;;;20.37;56.85;100949.53;5007337;28;20085;-80
2023/06/25 01:22:00;;;;;;;9.40;5.63;;;20.80;70.40;;;20.35;56.45;100955.22;5007657;28;20048;-80
2023/06/25 01:24:29;;;;;;;14.07;6.30;;;20.80;70.50;;;20.33;57.01;100950.06;5006686;28;20057;-80
2023/06/25 01:27:00;;;;;;;9.13;5.63;;;20.70;70.70;;;20.32;57.00;100947.63;5011531;28;20652;-80
2023/06/25 01:29:29;;;;;;;10.63;5.60;;;20.70;70.70;;;20.28;57.09;100943.81;5007402;28;20120;-80
2023/06/25 01:31:57;;;;;;;9.07;5.20;;;20.70;70.70;;;20.27;56.91;100939.47;5008154;28;20580;-79
2023/06/25 01:34:26;;;;;;;12.95;5.68;;;20.70;70.70;;;20.25;56.66;100934.31;5007070;28;20052;-80
2023/06/25 01:36:54;;;;;;;12.55;5.68;;;20.70;70.70;;;20.24;57.09;100937.28;5007076;28;20042;-80
2023/06/25 01:39:25;;;;;;;9.00;5.60;;;20.70;70.90;;;20.22;57.11;100942.16;5005067;28;20575;-80
2023/06/25 01:41:53;;;;;;;9.18;5.85;;;20.60;70.80;;;20.21;56.72;100940.53;5006657;28;20099;-80
2023/06/25 01:44:27;;;;;;;11.65;5.97;;;20.60;70.80;;;20.19;57.11;100931.84;5005096;28;20042;-80
2023/06/25 01:46:56;;;;;;;10.80;5.40;;;20.60;70.90;;;20.17;57.09;100937.53;5007989;28;20053;-80
2023/06/25 01:49:24;;;;;;;9.35;6.00;;;20.60;70.90;;;20.16;56.98;100924.25;5007164;28;20045;-80
2023/06/25 01:51:52;;;;;;;11.00;5.00;;;20.60;71.00;;;20.15;57.33;100917.19;5007986;28;20081;-80
2023/06/25 01:54:19;;;;;;;9.98;5.72;;;20.60;71.10;;;20.13;57.19;100914.75;5006610;28;20140;-80
2023/06/25 01:56:47;;;;;;;8.63;5.65;;;20.50;71.20;;;20.12;57.44;100917.72;5004226;28;20577;-80
2023/06/25 01:59:15;;;;;;;9.65;5.88;;;20.50;71.30;;;20.09;57.20;100908.22;4998801;28;20125;-79
2023/06/25 02:01:43;;;;;;;10.05;5.30;;;20.50;71.30;;;20.08;57.40;100903.09;5005840;28;20148;-80
2023/06/25 02:04:10;;;;;;;8.82;5.90;;;20.50;71.50;;;20.07;57.24;100902.28;5008586;28;20046;-80
2023/06/25 02:06:37;;;;;;;10.98;5.60;;;20.50;71.50;;;20.06;57.32;100903.34;5008783;28;20060;-80
2023/06/25 02:09:04;;;;;;;14.65;5.00;;;20.50;71.70;;;20.03;57.30;100898.47;5006830;28;20052;-79
2023/06/25 02:11:32;;;;;;;8.52;5.97;;;20.40;71.40;;;20.02;57.31;100897.66;5006736;28;20042;-79
2023/06/25 02:13:59;;;;;;;10.10;5.70;;;20.40;71.50;;;20.00;57.40;100899.78;5008116;28;20046;-80
2023/06/25 02:16:27;;;;;;;8.82;5.47;;;20.40;71.50;;;19.99;57.72;100898.16;5000852;28;20042;-80
2023/06/25 02:18:54;;;;;;;9.27;5.78;;;20.40;71.60;;;19.98;57.53;100898.44;5006541;28;20482;-80
2023/06/25 02:21:22;;;;;;;10.00;5.40;;;20.40;71.60;;;19.94;57.66;100892.72;5007499;28;20038;-80
2023/06/25 02:23:49;;;;;;;10.15;5.78;;;20.40;71.70;;;19.93;57.76;100896.50;5007389;28;20046;-80
2023/06/25 02:26:16;;;;;;;9.05;5.53;;;20.40;71.70;;;19.91;57.38;100887.84;5006419;28;20147;-79
2023/06/25 02:28:43;;;;;;;10.35;5.63;;;20.30;71.80;;;19.90;57.41;100886.19;5008493;28;20521;-80
2023/06/25 02:31:11;;;;;;;10.85;5.88;;;20.30;71.70;;;19.89;57.38;100886.47;5005778;28;20513;-80
2023/06/25 02:33:39;;;;;;;9.05;5.57;;;20.30;71.70;;;19.87;57.54;100886.75;5006341;28;20418;-80
2023/06/25 02:36:07;;;;;;;8.68;5.28;;;20.30;71.90;;;19.86;57.79;100884.28;5006923;28;20048;-80
2023/06/25 02:38:34;;;;;;;8.38;5.68;;;20.30;71.90;;;19.85;58.00;100879.94;5001603;28;20125;-80
2023/06/25 02:41:01;;;;;;;8.40;5.00;;;20.30;72.00;;;19.83;57.89;100880.22;5007320;28;20092;-80
2023/06/25 02:43:28;;;;;;;9.18;5.30;;;20.30;71.90;;;19.82;58.02;100883.19;5006511;28;20050;-80
2023/06/25 02:45:55;;;;;;;10.27;5.55;;;20.30;72.00;;;19.79;57.57;100879.09;5008172;28;20442;-80
2023/06/25 02:48:24;;;;;;;8.90;5.72;;;20.30;72.10;;;19.78;57.97;100882.91;5005891;28;20056;-80
2023/06/25 02:50:53;;;;;;;8.10;5.10;;;20.20;72.10;;;19.77;57.74;100886.69;5003867;28;20045;-80
2023/06/25 02:53:20;;;;;;;10.48;5.55;;;20.20;72.10;;;19.75;57.94;100878.00;5006731;28;20046;-80
2023/06/25 02:55:47;;;;;;;10.90;5.40;;;20.20;72.10;;;19.74;57.64;100879.09;5006021;28;20042;-79
2023/06/25 02:58:15;;;;;;;8.90;5.13;;;20.20;72.10;;;19.73;57.99;100878.28;5005639;28;20049;-79
2023/06/25 03:00:42;;;;;;;8.55;5.40;;;20.20;72.30;;;19.72;57.95;100870.44;5005379;28;20034;-79
2023/06/25 03:03:09;;;;;;;9.38;5.20;;;20.20;72.30;;;19.69;57.92;100863.63;5008086;28;20128;-80
2023/06/25 03:05:37;;;;;;;9.48;5.38;;;20.20;72.30;;;19.69;58.06;100869.03;5011819;28;20042;-80
2023/06/25 03:08:06;;;;;;;9.93;5.72;;;20.10;72.40;;;19.69;57.96;100868.22;5010233;28;20038;-80
2023/06/25 03:10:37;;;;;;;9.13;5.60;;;20.20;72.50;;;19.66;58.25;100864.13;5002404;28;20080;-79
2023/06/25 03:13:05;;;;;;;8.13;5.30;;;20.10;72.60;;;19.66;57.84;100863.31;5008212;28;20065;-80
2023/06/25 03:15:32;;;;;;;9.65;5.47;;;20.10;72.70;;;19.63;58.09;100869.28;5011410;28;20060;-80
2023/06/25 03:18:00;;;;;;;9.25;5.38;;;20.10;72.70;;;19.63;58.19;100874.69;5005036;28;20041;-80
2023/06/25 03:20:27;;;;;;;11.07;5.00;;;20.10;72.70;;;19.62;58.17;100868.47;5026442;28;20042;-80
2023/06/25 03:22:54;;;;;;;9.73;5.55;;;20.00;72.60;;;19.61;58.08;100866.81;5009870;28;20054;-80
2023/06/25 03:25:23;;;;;;;7.90;5.40;;;20.10;72.80;;;19.60;58.46;100867.91;5010502;28;20069;-80
2023/06/25 03:27:58;;;;;;;9.82;5.55;;;20.00;72.70;;;19.59;58.66;100870.84;5009508;28;20049;-79
2023/06/25 03:30:26;;;;;;;7.22;5.03;;;20.00;72.90;;;19.58;58.17;100861.09;5034191;22;20056;-82
2023/06/25 03:32:53;;;;;;;8.63;5.20;;;20.00;73.00;;;19.56;58.49;100867.56;5029351;28;20052;-82
2023/06/25 03:35:21;;;;;;;8.93;5.30;;;20.00;73.10;;;19.56;58.47;100856.75;5040302;28;20137;-82
2023/06/25 03:37:49;;;;;;;13.27;6.18;;;20.00;73.20;;;19.55;58.63;100852.41;5031048;28;20482;-82
2023/06/25 03:40:16;;;;;;;9.07;5.13;;;20.00;73.30;;;19.54;58.81;100850.78;5015767;28;20100;-83
2023/06/25 03:42:45;;;;;;;9.05;5.47;;;20.00;73.30;;;19.54;58.90;100855.38;5013808;28;20045;-83
2023/06/25 03:45:15;;;;;;;10.85;5.45;;;20.00;73.30;;;19.55;58.92;100851.59;5034987;28;20449;-83
2023/06/25 03:47:44;;;;;;;8.98;5.47;;;20.00;73.40;;;19.54;58.86;100853.50;5001408;28;20046;-82
2023/06/25 03:50:11;;;;;;;9.70;5.55;;;20.00;73.50;;;19.54;58.89;100852.69;5009481;28;20053;-83
2023/06/25 03:52:39;;;;;;;8.20;5.35;;;20.00;73.70;;;19.53;59.00;100851.88;5015324;28;20049;-81
2023/06/25 03:55:07;;;;;;;8.63;5.10;;;20.00;73.70;;;19.54;59.19;100852.69;5002226;28;20046;-83
2023/06/25 03:57:34;;;;;;;9.93;5.50;;;20.00;73.90;;;19.54;59.11;100855.38;5007978;28;20137;-83
2023/06/25 04:00:04;;;;;;;7.82;5.45;;;20.00;73.90;;;19.54;59.17;100853.50;5010466;28;20129;-83
2023/06/25 04:02:40;;;;;;;8.82;5.18;;;20.00;73.90;;;19.55;59.39;100857.81;5009516;28;20045;-83
2023/06/25 04:05:08;;;;;;;8.65;5.63;;;20.00;74.00;;;19.56;59.68;100856.75;5014691;28;20054;-83
2023/06/25 04:07:35;;;;;;;11.07;5.65;;;20.00;74.30;;;19.58;59.89;100856.50;5012149;28;20152;-83
2023/06/25 04:10:04;;;;;;;10.52;5.43;;;20.00;74.40;;;19.58;59.77;100856.50;5007359;28;20498;-83
2023/06/25 04:12:31;;;;;;;10.07;5.50;;;20.00;74.50;;;19.59;60.02;100854.59;5009262;28;20046;-83
2023/06/25 04:14:58;;;;;;;8.95;5.63;;;20.00;74.70;;;19.60;59.92;100857.06;5008486;28;20765;-83
2023/06/25 04:17:27;;;;;;;9.25;5.60;;;20.10;74.70;;;19.61;60.37;100861.41;5008282;28;20053;-83
2023/06/25 04:19:54;;;;;;;10.75;6.03;;;20.10;74.90;;;19.63;60.20;100861.97;5007789;28;20049;-84
2023/06/25 04:22:22;;;;;;;9.00;5.60;;;20.10;74.70;;;19.66;59.98;100855.22;5016099;28;20128;-83
2023/06/25 04:24:49;;;;;;;9.07;5.70;;;20.10;74.70;;;19.70;60.13;100859.03;4994162;28;20720;-83
2023/06/25 04:27:16;;;;;;;9.73;6.20;;;20.10;74.70;;;19.76;59.75;100856.09;5005787;28;20114;-84
2023/06/25 04:29:44;;;;;;;11.88;6.70;;;20.20;74.50;;;19.86;60.06;100851.78;5000503;28;20472;-83
2023/06/25 04:32:12;;;;;;;10.90;6.35;;;20.30;74.50;;;19.92;60.03;100851.56;5024043;28;20080;-84
2023/06/25 04:34:44;;;;;;;8.75;6.13;;;20.40;74.80;;;19.95;60.16;100845.59;5005422;28;20050;-83
2023/06/25 04:37:12;;;;;;;9.52;6.15;;;20.40;74.70;;;20.04;59.47;100846.72;5005138;28;20053;-83
2023/06/25 04:39:42;;;;;;;10.50;6.47;;;20.50;74.50;;;20.15;60.13;100849.47;5007844;28;20037;-83
2023/06/25 04:42:10;;;;;;;10.38;6.10;;;20.60;75.10;;;20.26;60.26;100851.97;5014885;28;20405;-83
2023/06/25 04:44:38;;;;;;;9.52;5.70;;;20.70;75.20;;;20.40;60.13;100851.44;4996225;28;20046;-83
2023/06/25 04:47:06;;;;;;;8.18;5.63;;;20.80;75.10;;;20.51;60.87;100853.97;5015075;28;20119;-83
2023/06/25 04:49:33;;;;;;;10.65;6.13;;;21.00;75.80;;;20.65;60.93;100858.88;4998429;28;20046;-83
2023/06/25 04:52:02;;;;;;;11.43;6.28;;;21.10;75.80;;;20.78;60.24;100863.75;5007197;28;20081;-83
2023/06/25 04:54:29;;;;;;;10.65;5.88;;;21.20;75.20;;;20.91;60.29;100854.28;5014149;28;20077;-83
2023/06/25 04:56:56;;;;;;;9.13;6.13;;;21.40;75.00;;;21.03;59.80;100855.66;5002730;28;20037;-84
2023/06/25 04:59:24;;;;;;;13.30;5.93;;;21.50;74.80;;;21.16;59.58;100859.69;5003623;28;20562;-83
2023/06/25 05:01:52;;;;;;;11.00;6.22;;;21.70;74.60;;;21.27;58.75;100855.88;5007610;28;20038;-83
2023/06/25 05:04:19;;;;;;;9.20;5.68;;;21.80;73.60;;;21.40;58.98;100853.75;5009075;28;20050;-83
2023/06/25 05:06:46;;;;;;;10.38;5.90;;;21.90;73.50;;;21.51;58.58;100848.00;5016671;28;20049;-82
2023/06/25 05:09:14;;;;;;;9.48;6.20;;;22.00;72.80;;;21.65;58.12;100847.44;5004769;28;20120;-83
2023/06/25 05:11:42;;;;;;;10.95;6.07;;;22.10;72.60;;;21.75;57.70;100850.13;4997859;28;20703;-83
2023/06/25 05:14:09;;;;;;;10.00;5.75;;;22.30;72.30;;;21.85;57.57;100841.94;5006130;28;20121;-83
2023/06/25 05:16:36;;;;;;;9.73;6.32;;;22.40;71.80;;;21.97;58.10;100841.66;5030291;28;20100;-82
2023/06/25 05:19:04;;;;;;;11.50;6.93;;;22.50;72.30;;;22.07;57.45;100847.03;5009605;28;20457;-82
2023/06/25 05:21:31;;;;;;;10.50;5.90;;;22.60;71.70;;;22.17;56.59;100844.28;5000183;28;20045;-83
2023/06/25 05:23:59;;;;;;;9.05;5.53;;;22.70;70.60;;;22.29;56.35;100852.09;5010516;28;20041;-83
2023/06/25 05:26:28;;;;;;;8.15;5.60;;;22.80;70.30;;;22.40;56.19;100850.13;5016667;28;20073;-83
2023/06/25 05:28:56;;;;;;;9.70;5.90;;;23.00;69.90;;;22.51;55.89;100851.72;4996513;28;20208;-83
2023/06/25 05:31:23;;;;;;;9.50;6.00;;;23.10;69.70;;;22.61;55.20;100849.75;5007329;28;20063;-83
2023/06/25 05:33:50;;;;;;;11.65;6.10;;;23.20;68.90;;;22.72;55.50;100849.66;5011137;28;20119;-83
2023/06/25 05:36:19;;;;;;;9.23;6.03;;;23.30;69.20;;;22.81;55.29;100850.69;5009983;28;20050;-83
2023/06/25 05:38:46;;;;;;;11.48;6.10;;;23.40;68.70;;;22.90;54.67;100851.75;5014132;28;20045;-83
2023/06/25 05:41:13;;;;;;;8.63;5.93;;;23.50;68.10;;;22.99;54.30;100847.31;5006143;28;20116;-83
2023/06/25 05:43:42;;;;;;;10.32;6.25;;;23.60;67.50;;;23.09;53.79;100847.22;5009167;28;20498;-83
2023/06/25 05:46:11;;;;;;;12.65;5.85;;;23.70;67.20;;;23.18;54.11;100844.72;5012076;28;20121;-83
2023/06/25 05:48:39;;;;;;;9.98;6.00;;;23.80;67.10;;;23.25;53.60;100850.63;5006841;28;20042;-83
2023/06/25 05:51:06;;;;;;;8.98;5.75;;;23.90;66.60;;;23.33;53.21;100847.28;5006445;28;20045;-83
2023/06/25 05:53:40;;;;;;;10.10;5.70;;;23.90;66.20;;;23.42;53.62;100847.44;5008190;28;20197;-83
2023/06/25 05:56:08;;;;;;;10.30;6.00;;;24.10;66.60;;;23.52;53.48;100854.72;5011096;28;20092;-83
2023/06/25 05:58:36;;;;;;;9.65;5.55;;;24.10;66.40;;;23.61;53.36;100853.78;4996146;28;20112;-82
2023/06/25 06:01:05;;;;;;;10.02;5.80;;;24.20;66.00;;;23.69;54.09;100844.22;5006617;28;20494;-83
2023/06/25 06:03:32;;;;;;;10.50;5.97;;;24.30;67.10;;;23.80;54.15;100842.19;5012964;28;20072;-83
2023/06/25 06:06:00;;;;;;;9.27;5.40;;;24.50;66.80;;;23.90;53.07;100845.59;5004907;28;20125;-83
2023/06/25 06:08:28;;;;;;;10.15;5.63;;;24.50;65.60;;;23.99;52.82;100843.03;4988790;28;20562;-84
2023/06/25 06:10:55;;;;;;;14.93;5.80;;;24.70;65.40;;;24.06;52.50;100843.50;5006623;28;20073;-83
2023/06/25 06:13:22;;;;;;;10.35;5.88;;;24.70;64.80;;;24.15;52.20;100851.81;5016085;28;20073;-83
2023/06/25 06:15:49;;;;;;;8.90;5.93;;;24.80;64.40;;;24.24;52.46;100843.81;5013061;28;20117;-83
2023/06/25 06:18:18;;;;;;;9.30;5.88;;;24.90;64.80;;;24.32;53.10;100852.13;5008654;28;20050;-83
2023/06/25 06:20:45;;;;;;;9.95;5.95;;;25.00;65.20;;;24.42;52.23;100850.41;5006298;28;20046;-83
2023/06/25 06:23:13;;;;;;;9.15;5.72;;;25.10;64.40;;;24.49;52.11;100851.66;4999825;28;20143;-83
2023/06/25 06:25:40;;;;;;;8.95;5.60;;;25.20;64.00;;;24.58;52.09;100857.25;5020068;28;20083;-82
2023/06/25 06:28:07;;;;;;;9.50;5.50;;;25.30;64.20;;;24.65;52.68;100850.34;5017354;28;20038;-83
2023/06/25 06:30:34;;;;;;;7.65;5.38;;;25.40;64.30;;;24.77;52.64;100843.59;5001825;28;20117;-83
2023/06/25 06:33:02;;;;;;;8.57;5.50;;;25.50;64.00;;;24.86;50.95;100842.63;4998237;28;20439;-83
2023/06/25 06:35:30;;;;;;;9.25;5.43;;;25.60;62.00;;;24.99;51.32;100843.00;5013613;28;20497;-82
2023/06/25 06:37:57;;;;;;;8.13;4.95;;;25.70;62.20;;;25.10;50.60;100839.00;5019052;28;20052;-83
2023/06/25 06:40:25;;;;;;;8.73;5.28;;;25.90;61.00;;;25.21;50.01;100840.44;5010700;28;20132;-83
2023/06/25 06:42:52;;;;;;;8.18;5.40;;;26.00;60.80;;;25.32;50.46;100838.31;5009773;28;20121;-82
2023/06/25 06:45:19;;;;;;;10.73;5.68;;;26.10;61.20;;;25.40;50.48;100832.19;5024305;28;20116;-83
2023/06/25 06:47:46;;;;;;;7.28;5.40;;;26.20;61.40;;;25.49;50.09;100835.03;5003117;28;20070;-83
2023/06/25 06:50:14;;;;;;;8.70;5.78;;;26.30;60.60;;;25.57;50.58;100829.69;5012832;28;20045;-82
2023/06/25 06:52:43;;;;;;;9.63;5.40;;;26.40;61.00;;;25.66;50.25;100829.75;5010518;28;20149;-82
2023/06/25 06:55:10;;;;;;;7.82;5.07;;;26.40;60.80;;;25.75;49.92;100821.66;5007923;28;20528;-82
2023/06/25 06:57:38;;;;;;;8.23;5.30;;;26.50;60.40;;;25.82;48.95;100827.59;5006325;28;20049;-84
2023/06/25 07:00:07;;;;;;;8.65;5.28;;;26.60;59.10;;;25.92;49.30;100832.84;5005025;28;20042;-86
2023/06/25 07:02:34;;;;;;;6.90;5.28;;;26.70;59.70;;;25.99;49.68;100826.94;5010650;28;20077;-86
2023/06/25 07:05:02;;;;;;;7.88;5.28;;;26.80;59.80;;;26.04;50.52;100824.09;5025982;28;20076;-81
2023/06/25 07:07:29;;;;;;;8.55;5.43;;;26.80;60.30;;;26.07;48.80;100824.31;5010851;28;20044;-85
2023/06/25 07:09:58;;;;;;;8.68;5.78;;;26.90;59.00;;;26.16;48.24;100821.66;5001093;28;20042;-83
2023/06/25 07:12:25;;;;;;;7.88;5.22;;;27.00;58.70;;;26.22;48.21;100823.16;5009533;28;20038;-84
2023/06/25 07:14:52;;;;;;;10.88;6.03;;;27.00;58.30;;;26.27;48.50;100816.78;5000800;28;20129;-83
2023/06/25 07:17:19;;;;;;;8.68;5.40;;;27.10;59.10;;;26.34;48.06;100817.13;5007167;28;20058;-83
2023/06/25 07:19:47;;;;;;;9.55;5.97;;;27.10;57.90;;;26.38;46.81;100812.66;5004452;28;20663;-83
2023/06/25 07:22:16;;;;;;;9.00;4.88;;;27.20;56.40;;;26.43;47.53;100812.59;5011050;28;20121;-82
2023/06/25 07:24:44;;;;;;;9.88;5.00;;;27.20;57.30;;;26.50;47.21;100815.72;5015913;28;20057;-83
2023/06/25 07:27:12;;;;;;;8.73;5.28;;;27.30;57.40;;;26.55;46.87;100821.06;5010378;28;20121;-81
2023/06/25 07:29:40;;;;;;;7.95;4.65;;;27.40;56.40;;;26.62;47.00;100821.44;5001618;28;20128;-82
2023/06/25 07:32:08;;;;;;;9.48;5.18;;;27.40;56.50;;;26.68;46.56;100822.13;4997038;28;20128;-82
2023/06/25 07:34:36;;;;;;;6.97;4.88;;;27.50;56.10;;;26.74;46.04;100820.06;4991759;28;20050;-81
2023/06/25 07:37:04;;;;;;;8.40;5.30;;;27.50;55.70;;;26.80;45.80;100816.09;5017484;28;20124;-82
2023/06/25 07:39:33;;;;;;;7.80;5.03;;;27.60;55.20;;;26.85;45.38;100818.69;4997961;28;20050;-81
2023/06/25 07:42:00;;;;;;;8.07;4.90;;;27.70;55.20;;;26.89;45.94;100819.66;5004887;28;20142;-81
2023/06/25 07:44:29;;;;;;;9.30;5.43;;;27.70;55.40;;;26.92;46.13;100822.59;5011744;28;20041;-81
2023/06/25 07:46:56;;;;;;;9.90;4.93;;;27.70;55.70;;;26.97;45.69;100821.66;4997690;28;20050;-80
2023/06/25 07:49:23;;;;;;;7.55;5.35;;;27.80;54.70;;;27.03;46.33;100816.88;5014443;28;20495;-80
2023/06/25 07:51:51;;;;;;;7.70;5.10;;;27.80;55.50;;;27.07;46.00;100815.13;5008480;28;20042;-81
2023/06/25 07:54:19;;;;;;;6.43;4.93;;;27.90;55.10;;;27.09;45.33;100818.41;5016848;28;20046;-81
2023/06/25 07:56:46;;;;;;;7.47;5.20;;;27.90;54.40;;;27.13;44.75;100805.69;5012558;28;20557;-80
2023/06/25 07:59:14;;;;;;;7.07;4.97;;;28.00;54.10;;;27.21;45.79;100810.41;5015081;28;20073;-82
2023/06/25 08:01:44;;;;;;;9.85;5.05;;;28.00;55.30;;;27.26;44.24;100812.19;5007568;28;20038;-81
2023/06/25 08:04:11;;;;;;;6.72;5.18;;;28.10;54.00;;;27.30;43.31;100813.19;5014620;28;20092;-81
2023/06/25 08:06:38;;;;;;;8.35;5.60;;;28.10;52.30;;;27.31;44.60;100806.56;5017095;28;20054;-81
2023/06/25 08:09:06;;;;;;;7.50;5.20;;;28.10;53.80;;;27.35;43.57;100802.09;5023740;28;20942;-81
2023/06/25 08:11:33;;;;;;;7.55;5.28;;;28.20;53.00;;;27.37;43.79;100802.56;5008627;28;20108;-83
2023/06/25 08:14:00;;;;;;;7.35;4.90;;;28.20;53.00;;;27.40;44.20;100793.72;5014984;28;20053;-89
2023/06/25 08:16:29;;;;;;;10.45;5.03;;;28.20;53.60;;;27.42;44.23;100800.50;5008856;28;20455;-88
2023/06/25 08:18:58;;;;;;;8.48;4.70;;;28.20;53.60;;;27.40;42.07;100800.00;5003145;28;20514;-85
2023/06/25 08:21:25;;;;;;;6.40;4.85;;;28.20;51.00;;;27.44;43.41;100794.72;5012912;28;20556;-85
2023/06/25 08:23:52;;;;;;;6.68;4.82;;;28.30;52.60;;;27.46;44.01;100797.94;5009670;28;20077;-85
2023/06/25 08:26:20;;;;;;;8.30;5.28;;;28.30;52.70;;;27.59;44.89;100799.75;4999852;28;20144;-85
2023/06/25 08:28:47;;;;;;;7.35;4.70;;;28.50;53.90;;;27.63;42.50;100803.50;5006727;28;20041;-86
2023/06/25 08:31:14;;;;;;;7.13;4.90;;;28.40;51.10;;;27.65;42.79;100801.22;5000655;28;20046;-86
2023/06/25 08:33:41;;;;;;;7.63;4.82;;;28.50;51.70;;;27.70;41.91;100801.06;5008342;28;20555;-87
2023/06/25 08:36:10;;;;;;;6.00;4.93;;;28.50;50.60;;;27.78;43.29;100791.31;5008763;28;20050;-87
2023/06/25 08:38:38;;;;;;;10.35;5.65;;;28.60;52.10;;;27.79;42.07;100801.13;5021783;28;20053;-87
2023/06/25 08:41:05;;;;;;;7.95;4.97;;;28.60;50.40;;;27.85;40.70;100799.03;5005740;28;20076;-87
2023/06/25 08:43:33;;;;;;;7.90;4.80;;;28.70;48.80;;;27.86;42.36;100795.97;5015207;28;20061;-87
2023/06/25 08:46:00;;;;;;;9.32;4.70;;;28.70;51.00;;;27.81;41.52;100800.81;5001375;28;20053;-86
2023/06/25 08:48:30;;;;;;;7.65;5.20;;;28.70;49.80;;;27.82;40.89;100795.03;5005570;28;20498;-87
2023/06/25 08:51:02;;;;;;;8.13;5.40;;;28.70;48.50;;;27.81;39.68;100793.38;5007042;28;20053;-86
2023/06/25 08:53:32;;;;;;;9.15;4.80;;;28.70;47.50;;;27.89;40.19;100798.09;5004987;28;20397;-86
2023/06/25 08:56:03;;;;;;;10.77;6.07;;;28.70;47.70;;;27.88;40.73;100791.00;5000996;28;20041;-86
2023/06/25 08:58:31;;;;;;;6.38;4.78;;;28.70;48.50;;;27.88;41.41;100788.25;5004787;28;20289;-86
2023/06/25 09:00:58;;;;;;;7.10;5.25;;;28.70;49.20;;;27.87;41.14;100794.88;5003613;28;20502;-84
2023/06/25 09:03:27;;;;;;;6.70;4.60;;;28.70;49.00;;;27.82;41.76;100789.53;5004080;28;20517;-85
2023/06/25 09:05:57;;;;;;;6.80;4.70;;;28.70;49.50;;;27.86;41.95;100784.22;5001310;28;20585;-84
2023/06/25 09:08:26;;;;;;;6.50;4.77;;;28.70;49.70;;;27.97;41.27;100791.81;5000433;28;20119;-84
2023/06/25 09:10:56;;;;;;;6.82;4.90;;;28.80;48.80;;;28.03;40.09;100795.22;5013713;28;20385;-84
2023/06/25 09:13:25;;;;;;;6.97;4.70;;;28.90;47.60;;;27.99;38.91;100788.75;4999328;28;20128;-85
2023/06/25 09:16:01;;;;;;;6.65;4.80;;;28.80;46.30;;;27.95;39.18;100782.28;4998900;28;20060;-85
2023/06/25 09:18:29;;;;;;;8.15;5.13;;;28.80;46.40;;;27.96;38.82;100782.00;5001548;28;20468;-83
2023/06/25 09:21:01;;;;;;;6.88;4.93;;;28.80;46.00;;;27.99;40.15;100777.78;5001962;28;20054;-84
2023/06/25 09:23:28;;;;;;;7.15;5.20;;;28.80;47.30;;;28.06;40.44;100774.56;5014148;28;20763;-82
2023/06/25 09:25:57;;;;;;;7.60;4.53;;;28.80;48.10;;;28.08;39.10;100781.34;5007751;28;20046;-83
2023/06/25 09:28:24;;;;;;;7.75;5.22;;;28.90;46.50;;;28.11;39.52;100775.22;5009050;28;20133;-83
2023/06/25 09:30:57;;;;;;;7.60;4.88;;;28.90;46.50;;;28.10;39.49;100781.03;5027276;23;20054;-80
2023/06/25 09:33:32;;;;;;;8.45;5.03;;;28.90;47.00;;;28.11;39.88;100769.75;5021398;28;20061;-81
2023/06/25 09:36:01;;;;;;;10.43;5.05;;;28.90;47.10;;;28.10;39.09;100773.59;5012739;28;20544;-81
2023/06/25 09:38:28;;;;;;;7.63;4.95;;;28.90;46.40;;;28.03;39.85;100775.22;5016943;28;20442;-81
2023/06/25 09:40:59;;;;;;;7.00;5.00;;;28.90;47.10;;;28.07;39.98;100773.44;4999611;28;20064;-80
2023/06/25 09:43:27;;;;;;;7.15;4.90;;;28.90;47.30;;;28.04;39.96;100763.91;5004999;28;20044;-80
2023/06/25 09:45:56;;;;;;;7.18;5.15;;;28.90;47.30;;;28.02;39.51;100771.66;5011612;28;20132;-79
2023/06/25 09:48:25;;;;;;;7.03;4.97;;;28.90;46.70;;;28.07;38.48;100763.28;4991453;28;20042;-80
2023/06/25 09:50:56;;;;;;;7.45;5.22;;;28.90;45.40;;;28.10;38.64;100761.81;5005212;28;20038;-80
2023/06/25 09:53:27;;;;;;;7.95;5.15;;;28.90;45.90;;;28.13;39.18;100762.00;5000816;28;20574;-80
2023/06/25 09:56:01;;;;;;;7.03;5.07;;;29.00;46.50;;;28.10;40.17;100761.81;5009017;28;20053;-80
2023/06/25 09:58:30;;;;;;;7.13;4.40;;;28.90;47.50;;;28.02;40.55;100757.16;4993601;28;20120;-80
2023/06/25 10:00:57;;;;;;;8.60;5.13;;;28.90;47.60;;;27.98;39.28;100757.78;5002486;28;20435;-80
2023/06/25 10:03:25;;;;;;;6.90;5.05;;;28.90;46.20;;;28.03;39.50;100751.34;5015401;28;20078;-79
2023/06/25 10:05:53;;;;;;;9.30;5.63;;;28.90;46.50;;;28.02;39.97;100757.97;5014091;28;20088;-81
2023/06/25 10:08:20;;;;;;;6.45;4.97;;;28.90;46.80;;;28.04;40.19;100758.44;5003802;28;20044;-80
2023/06/25 10:10:58;;;;;;;7.90;5.25;;;28.80;47.80;;;28.06;39.97;100753.44;4997403;28;20038;-80
2023/06/25 10:13:27;;;;;;;7.85;5.07;;;28.80;47.30;;;28.01;41.47;100750.03;5015301;28;20050;-79
2023/06/25 10:15:58;;;;;;;8.68;4.97;;;28.80;48.80;;;28.01;39.45;100750.03;5000186;28;20046;-78